createdAt,value
2022-10-19T00:00:47.955Z,11.67
2022-10-19T00:03:15.771Z,11.75
2022-10-19T00:05:44.585Z,11.79
2022-10-19T00:08:10.995Z,11.49
2022-10-19T00:10:40.282Z,11.56
2022-10-19T00:13:06.719Z,11.53
2022-10-19T00:15:33.157Z,11.62
2022-10-19T00:17:59.580Z,11.51
2022-10-19T00:20:26.016Z,11.43
2022-10-19T00:22:52.468Z,11.52
2022-10-19T00:25:18.928Z,11.41
2022-10-19T00:27:45.401Z,11.31
2022-10-19T00:30:11.848Z,11.50
2022-10-19T00:32:38.284Z,11.39
2022-10-19T00:35:05.049Z,11.30
2022-10-19T00:37:31.593Z,11.16
2022-10-19T00:39:58.099Z,11.14
2022-10-19T00:42:24.946Z,11.39
2022-10-19T00:44:51.285Z,11.38
2022-10-19T00:47:20.719Z,11.44
2022-10-19T00:49:47.113Z,11.35
2022-10-19T00:52:17.080Z,11.21
2022-10-19T00:54:47.365Z,11.08
2022-10-19T00:57:14.990Z,11.16
2022-10-19T00:59:45.105Z,11.03
2022-10-19T01:02:11.888Z,10.98
2022-10-19T01:04:42.005Z,10.88
2022-10-19T01:07:09.146Z,10.85
2022-10-19T01:09:35.669Z,10.76
2022-10-19T01:12:40.741Z,11.16
2022-10-19T01:15:29.205Z,11.18
2022-10-19T01:18:07.717Z,11.13
2022-10-19T01:20:36.991Z,11.12
2022-10-19T01:23:28.287Z,11.00
2022-10-19T01:26:13.326Z,11.10
2022-10-19T01:29:10.939Z,11.06
2022-10-19T01:32:00.013Z,11.31
2022-10-19T01:34:34.505Z,11.30
2022-10-19T01:37:24.466Z,11.19
2022-10-19T01:40:02.042Z,11.23
2022-10-19T01:42:48.657Z,11.17
2022-10-19T01:45:17.550Z,11.21
2022-10-19T01:48:03.844Z,11.05
2022-10-19T01:50:40.982Z,11.11
2022-10-19T01:53:10.777Z,10.85
2022-10-19T01:55:42.700Z,11.05
2022-10-19T01:58:13.196Z,10.79
2022-10-19T02:00:43.820Z,10.98
2022-10-19T02:03:11.986Z,11.01
2022-10-19T02:05:40.598Z,10.85
2022-10-19T02:08:12.488Z,10.79
2022-10-19T02:10:41.601Z,10.75
2022-10-19T02:13:09.278Z,10.37
2022-10-19T02:15:38.576Z,10.61
2022-10-19T02:18:07.042Z,10.55
2022-10-19T02:20:35.278Z,10.62
2022-10-19T02:23:04.756Z,10.54
2022-10-19T02:25:31.523Z,10.44
2022-10-19T02:27:58.223Z,10.39
2022-10-19T02:30:24.727Z,10.27
2022-10-19T02:32:51.575Z,10.36
2022-10-19T02:35:18.279Z,10.19
2022-10-19T02:37:45.175Z,10.19
2022-10-19T02:40:12.516Z,10.16
2022-10-19T02:42:44.228Z,10.19
2022-10-19T02:45:19.805Z,10.36
2022-10-19T02:48:01.034Z,10.33
2022-10-19T02:50:27.873Z,10.36
2022-10-19T02:52:54.370Z,10.42
2022-10-19T02:55:20.916Z,10.42
2022-10-19T02:57:47.370Z,10.46
2022-10-19T03:00:13.869Z,10.24
2022-10-19T03:02:40.347Z,10.31
2022-10-19T03:05:08.334Z,10.04
2022-10-19T03:07:37.587Z,10.22
2022-10-19T03:10:06.958Z,10.34
2022-10-19T03:12:33.418Z,10.06
2022-10-19T03:15:02.082Z,10.07
2022-10-19T03:17:28.520Z,10.16
2022-10-19T03:19:54.982Z,10.24
2022-10-19T03:22:21.394Z,9.94
2022-10-19T03:24:47.887Z,9.72
2022-10-19T03:27:14.553Z,10.09
2022-10-19T03:29:40.983Z,9.98
2022-10-19T03:32:07.722Z,10.02
2022-10-19T03:34:34.176Z,9.78
2022-10-19T03:37:00.650Z,9.86
2022-10-19T03:39:27.194Z,9.83
2022-10-19T03:41:56.010Z,9.50
2022-10-19T03:44:24.679Z,9.58
2022-10-19T03:46:53.498Z,9.61
2022-10-19T03:49:21.905Z,9.66
2022-10-19T03:51:50.989Z,9.70
2022-10-19T03:54:22.516Z,9.68
2022-10-19T03:56:52.831Z,9.75
2022-10-19T03:59:19.525Z,9.59
2022-10-19T04:01:46.360Z,9.37
2022-10-19T04:04:16.785Z,9.95
2022-10-19T04:06:46.204Z,9.81
2022-10-19T04:09:13.753Z,10.05
2022-10-19T04:11:40.266Z,10.13
2022-10-19T04:14:06.875Z,9.78
2022-10-19T04:16:33.673Z,9.92
2022-10-19T04:19:00.426Z,9.84
2022-10-19T04:21:48.100Z,10.14
2022-10-19T04:24:17.481Z,9.96
2022-10-19T04:26:46.829Z,10.00
2022-10-19T04:29:14.056Z,9.82
2022-10-19T04:31:40.854Z,9.99
2022-10-19T04:34:07.901Z,10.06
2022-10-19T04:36:34.793Z,9.81
2022-10-19T04:39:01.282Z,9.65
2022-10-19T04:41:27.731Z,9.73
2022-10-19T04:44:00.789Z,9.24
2022-10-19T04:46:28.648Z,9.90
2022-10-19T04:48:59.335Z,9.91
2022-10-19T04:51:35.780Z,8.97
2022-10-19T04:54:03.340Z,9.77
2022-10-19T04:56:32.139Z,9.68
2022-10-19T04:58:59.987Z,9.92
2022-10-19T05:01:28.844Z,9.42
2022-10-19T05:06:24.516Z,9.76
2022-10-19T05:08:51.009Z,9.68
2022-10-19T05:11:18.586Z,9.99
2022-10-19T05:13:45.895Z,9.95
2022-10-19T05:16:15.393Z,9.85
2022-10-19T05:18:42.020Z,10.03
2022-10-19T05:21:13.586Z,9.68
2022-10-19T05:23:41.984Z,9.53
2022-10-19T05:26:14.514Z,10.11
2022-10-19T05:28:41.221Z,10.01
2022-10-19T05:31:19.401Z,9.98
2022-10-19T05:33:46.426Z,9.68
2022-10-19T05:36:21.211Z,9.72
2022-10-19T05:38:49.855Z,9.99
2022-10-19T05:41:17.390Z,10.08
2022-10-19T05:43:43.985Z,10.05
2022-10-19T05:46:14.786Z,9.74
2022-10-19T05:48:41.401Z,9.66
2022-10-19T05:51:11.303Z,10.21
2022-10-19T05:56:06.826Z,10.10
2022-10-19T05:58:34.083Z,10.10
2022-10-19T06:01:02.915Z,10.30
2022-10-19T06:03:30.053Z,10.34
2022-10-19T06:05:57.366Z,10.36
2022-10-19T06:08:24.797Z,9.77
2022-10-19T06:10:51.559Z,9.95
2022-10-19T06:13:19.493Z,10.40
2022-10-19T06:15:50.772Z,10.44
2022-10-19T06:18:17.407Z,9.81
2022-10-19T06:20:48.340Z,10.03
2022-10-19T06:23:14.828Z,10.08
2022-10-19T06:25:41.566Z,10.34
2022-10-19T06:28:12.547Z,10.27
2022-10-19T06:30:42.525Z,10.09
2022-10-19T06:33:09.012Z,10.50
2022-10-19T06:35:35.530Z,10.23
2022-10-19T06:38:01.986Z,10.27
2022-10-19T06:40:28.540Z,10.62
2022-10-19T06:42:58.552Z,10.63
2022-10-19T06:45:25.137Z,10.54
2022-10-19T06:47:51.874Z,10.50
2022-10-19T06:50:23.050Z,10.09
2022-10-19T06:52:49.537Z,10.12
2022-10-19T06:55:17.775Z,10.21
2022-10-19T06:57:45.147Z,10.53
2022-10-19T07:00:14.402Z,9.95
2022-10-19T07:02:43.774Z,10.50
2022-10-19T07:05:10.551Z,10.22
2022-10-19T07:07:40.001Z,10.06
2022-10-19T07:10:08.962Z,10.56
2022-10-19T07:12:35.472Z,10.16
2022-10-19T07:15:12.931Z,10.32
2022-10-19T07:17:39.501Z,9.71
2022-10-19T07:20:06.466Z,10.11
2022-10-19T07:22:33.043Z,10.19
2022-10-19T07:24:59.607Z,9.94
2022-10-19T07:27:26.122Z,10.44
2022-10-19T07:29:52.660Z,10.40
2022-10-19T07:32:19.263Z,10.49
2022-10-19T07:34:51.372Z,10.43
2022-10-19T07:37:18.144Z,10.05
2022-10-19T07:39:51.154Z,10.87
2022-10-19T07:42:17.704Z,9.96
2022-10-19T07:44:46.432Z,10.45
2022-10-19T07:47:15.503Z,10.29
2022-10-19T07:49:42.086Z,10.49
2022-10-19T07:52:11.290Z,10.89
2022-10-19T07:54:41.189Z,9.94
2022-10-19T07:57:07.820Z,10.26
2022-10-19T07:59:38.039Z,10.18
2022-10-19T08:02:05.074Z,10.55
2022-10-19T08:04:58.920Z,10.75
2022-10-19T08:07:21.311Z,10.33
2022-10-19T08:09:54.279Z,10.51
2022-10-19T08:12:21.499Z,10.31
2022-10-19T08:14:48.338Z,10.06
2022-10-19T08:17:17.523Z,10.12
2022-10-19T08:19:50.914Z,10.15
2022-10-19T08:22:18.862Z,10.65
2022-10-19T08:24:45.591Z,10.72
2022-10-19T08:27:12.275Z,10.83
2022-10-19T08:29:38.885Z,10.70
2022-10-19T08:32:05.480Z,10.92
2022-10-19T08:34:39.894Z,10.72
2022-10-19T08:50:42.401Z,10.60
2022-10-19T08:53:16.756Z,11.27
2022-10-19T08:56:04.907Z,11.34
2022-10-19T08:58:54.913Z,11.40
2022-10-19T09:01:48.907Z,11.27
2022-10-19T09:04:25.175Z,11.47
2022-10-19T09:06:58.046Z,11.42
2022-10-19T09:09:25.840Z,10.96
2022-10-19T09:11:56.483Z,11.42
2022-10-19T09:14:31.797Z,11.13
2022-10-19T09:17:03.771Z,10.56
2022-10-19T09:19:36.829Z,11.13
2022-10-19T09:22:32.192Z,10.59
2022-10-19T09:25:24.803Z,11.67
2022-10-19T09:28:21.511Z,10.93
2022-10-19T09:30:51.544Z,11.40
2022-10-19T09:33:36.444Z,10.79
2022-10-19T09:36:10.410Z,11.00
2022-10-19T09:38:46.073Z,11.34
2022-10-19T09:41:33.935Z,11.47
2022-10-19T09:44:03.696Z,11.42
2022-10-19T09:46:31.485Z,12.05
2022-10-19T09:49:04.027Z,11.92
2022-10-19T09:51:52.426Z,11.78
2022-10-19T09:54:37.335Z,12.07
2022-10-19T09:57:05.936Z,11.50
2022-10-19T09:59:39.210Z,11.54
2022-10-19T10:02:06.283Z,12.20
2022-10-19T10:04:36.426Z,11.85
2022-10-19T10:07:05.080Z,11.48
2022-10-19T10:09:48.990Z,12.27
2022-10-19T10:12:16.195Z,11.42
2022-10-19T10:14:50.955Z,11.42
2022-10-19T10:17:35.987Z,11.48
2022-10-19T10:20:20.375Z,11.76
2022-10-19T10:23:29.279Z,11.88
2022-10-19T10:25:57.098Z,12.61
2022-10-19T10:28:27.589Z,12.62
2022-10-19T10:31:13.626Z,12.23
2022-10-19T10:33:46.202Z,12.20
2022-10-19T10:36:13.259Z,12.11
2022-10-19T10:38:46.851Z,12.58
2022-10-19T10:46:37.125Z,12.89
2022-10-19T10:49:18.774Z,12.91
2022-10-19T10:51:52.887Z,13.06
2022-10-19T10:54:30.666Z,12.67
2022-10-19T10:57:06.800Z,13.19
2022-10-19T10:59:43.125Z,12.81
2022-10-19T11:02:30.743Z,13.00
2022-10-19T11:05:13.161Z,13.35
2022-10-19T11:07:44.829Z,13.17
2022-10-19T11:10:21.682Z,13.19
2022-10-19T11:12:56.247Z,12.81
2022-10-19T11:18:13.933Z,13.17
2022-10-19T11:20:51.255Z,13.06
2022-10-19T11:23:54.007Z,13.56
2022-10-19T11:26:26.713Z,13.65
2022-10-19T11:29:21.574Z,13.36
2022-10-19T11:31:51.251Z,13.52
2022-10-19T11:34:46.630Z,13.78
2022-10-19T11:38:17.503Z,13.55
2022-10-19T11:40:54.144Z,13.49
2022-10-19T11:43:41.326Z,13.55
2022-10-19T11:46:30.112Z,13.50
2022-10-19T11:49:01.714Z,14.08
2022-10-19T11:51:53.345Z,14.11
2022-10-19T11:54:33.274Z,13.77
2022-10-19T11:57:08.385Z,14.21
2022-10-19T12:00:00.225Z,13.94
2022-10-19T12:02:54.038Z,14.37
2022-10-19T12:05:46.749Z,14.34
2022-10-19T12:08:41.762Z,14.41
2022-10-19T12:11:27.375Z,14.45
2022-10-19T12:14:03.075Z,14.12
2022-10-19T12:16:40.361Z,14.62
2022-10-19T12:19:26.298Z,14.29
2022-10-19T12:22:01.513Z,14.46
2022-10-19T12:24:32.772Z,14.42
2022-10-19T12:27:06.044Z,14.70
2022-10-19T12:29:41.853Z,14.27
2022-10-19T12:32:14.407Z,14.85
2022-10-19T12:35:03.764Z,14.55
2022-10-19T12:37:42.811Z,14.81
2022-10-19T12:40:27.874Z,14.87
2022-10-19T12:43:08.926Z,14.54
2022-10-19T12:45:51.995Z,14.56
2022-10-19T12:48:32.508Z,15.00
2022-10-19T12:51:03.045Z,14.76
2022-10-19T12:53:44.515Z,14.87
2022-10-19T12:56:13.534Z,15.18
2022-10-19T12:58:56.481Z,14.97
2022-10-19T13:01:28.074Z,14.80
2022-10-19T13:04:16.758Z,15.19
2022-10-19T13:07:12.796Z,15.24
2022-10-19T13:09:49.204Z,15.31
2022-10-19T13:12:21.298Z,15.30
2022-10-19T13:15:13.339Z,15.32
2022-10-19T13:17:52.257Z,14.87
2022-10-19T13:20:18.831Z,15.36
2022-10-19T13:22:50.975Z,15.15
2022-10-19T13:25:35.021Z,15.31
2022-10-19T13:28:07.616Z,15.37
2022-10-19T13:31:03.423Z,15.40
2022-10-19T13:33:46.481Z,15.47
2022-10-19T13:36:13.974Z,15.49
2022-10-19T13:38:55.841Z,15.51
2022-10-19T13:41:27.979Z,15.15
2022-10-19T13:44:12.102Z,14.91
2022-10-19T13:46:53.994Z,15.64
2022-10-19T13:49:41.569Z,15.65
2022-10-19T13:52:47.490Z,15.66
2022-10-19T13:55:28.527Z,15.18
2022-10-19T13:58:32.582Z,15.67
2022-10-19T14:01:21.702Z,15.39
2022-10-19T14:04:10.630Z,15.36
2022-10-19T14:06:47.295Z,15.75
2022-10-19T14:09:35.674Z,15.73
2022-10-19T14:12:18.334Z,15.62
2022-10-19T14:14:45.413Z,15.48
2022-10-19T14:17:24.576Z,15.76
2022-10-19T14:19:56.985Z,15.78
2022-10-19T14:22:36.070Z,15.66
2022-10-19T14:25:14.759Z,15.79
2022-10-19T14:27:41.629Z,15.71
2022-10-19T14:30:22.539Z,15.51
2022-10-19T14:32:49.747Z,15.61
2022-10-19T14:35:25.622Z,15.69
2022-10-19T14:37:54.890Z,15.53
2022-10-19T14:40:26.355Z,15.82
2022-10-19T14:42:56.865Z,15.64
2022-10-19T14:45:29.517Z,15.72
2022-10-19T14:47:59.030Z,15.82
2022-10-19T14:50:31.318Z,15.80
2022-10-19T14:53:18.040Z,15.60
2022-10-19T14:55:45.528Z,15.60
2022-10-19T14:58:19.250Z,15.60
2022-10-19T15:00:49.191Z,15.77
2022-10-19T15:03:26.412Z,15.85
2022-10-19T15:06:00.347Z,15.71
2022-10-19T15:08:39.951Z,15.37
2022-10-19T15:11:07.865Z,15.91
2022-10-19T15:13:41.472Z,15.32
2022-10-19T15:24:24.180Z,16.02
2022-10-19T15:27:58.562Z,15.96
2022-10-19T15:30:45.618Z,15.10
2022-10-19T15:33:15.364Z,15.67
2022-10-19T15:35:44.695Z,15.46
2022-10-19T15:38:15.909Z,15.74
2022-10-19T15:40:49.177Z,14.97
2022-10-19T15:43:30.987Z,15.65
2022-10-19T15:46:05.171Z,15.59
2022-10-19T15:48:41.942Z,15.52
2022-10-19T15:51:23.476Z,15.47
2022-10-19T15:53:58.975Z,15.37
2022-10-19T15:56:27.588Z,15.08
2022-10-19T15:59:04.495Z,15.14
2022-10-19T16:01:36.433Z,15.17
2022-10-19T16:04:02.992Z,14.83
2022-10-19T16:06:32.198Z,15.24
2022-10-19T16:09:00.387Z,15.07
2022-10-19T16:11:31.784Z,14.78
2022-10-19T16:13:59.451Z,14.57
2022-10-19T16:16:32.354Z,14.49
2022-10-19T16:19:00.244Z,14.71
2022-10-19T16:21:30.465Z,14.45
2022-10-19T16:23:57.199Z,14.74
2022-10-19T16:26:26.037Z,14.42
2022-10-19T16:28:54.352Z,14.38
2022-10-19T16:31:21.558Z,14.43
2022-10-19T16:33:48.135Z,14.34
2022-10-19T16:36:14.800Z,14.09
2022-10-19T16:38:41.380Z,14.22
2022-10-19T16:41:10.577Z,14.36
2022-10-19T16:43:39.661Z,13.82
2022-10-19T16:46:07.752Z,13.81
2022-10-19T16:48:38.193Z,14.09
2022-10-19T16:51:07.682Z,14.42
2022-10-19T16:53:34.478Z,14.39
2022-10-19T16:56:12.715Z,14.16
2022-10-19T16:58:40.610Z,13.60
2022-10-19T17:01:17.629Z,13.26
2022-10-19T17:03:48.482Z,13.48
2022-10-19T17:06:17.281Z,13.76
2022-10-19T17:09:14.761Z,13.54
2022-10-19T17:11:35.965Z,14.01
2022-10-19T17:14:08.482Z,14.01
2022-10-19T17:16:36.892Z,13.94
2022-10-19T17:19:05.656Z,14.08
2022-10-19T17:21:40.999Z,14.02
2022-10-19T17:24:14.693Z,13.67
2022-10-19T17:26:47.662Z,13.97
2022-10-19T17:29:14.313Z,13.70
2022-10-19T17:31:41.805Z,13.99
2022-10-19T17:34:09.077Z,13.63
2022-10-19T17:39:17.842Z,13.88
2022-10-19T17:41:45.827Z,13.80
2022-10-19T17:44:12.533Z,13.86
2022-10-19T17:46:41.415Z,13.74
2022-10-19T17:49:08.062Z,13.60
2022-10-19T17:51:36.000Z,13.73
2022-10-19T17:54:07.750Z,13.27
2022-10-19T17:56:35.230Z,13.76
2022-10-19T17:59:11.564Z,13.00
2022-10-19T18:01:38.387Z,13.21
2022-10-19T18:04:06.458Z,13.68
2022-10-19T18:06:35.445Z,13.35
2022-10-19T18:09:05.559Z,13.67
2022-10-19T18:11:44.656Z,13.61
2022-10-19T18:14:14.691Z,13.61
2022-10-19T18:16:54.621Z,13.58
2022-10-19T18:19:25.783Z,13.54
2022-10-19T18:21:53.104Z,13.16
2022-10-19T18:24:21.211Z,13.47
2022-10-19T18:26:49.689Z,12.96
2022-10-19T18:29:20.815Z,13.41
2022-10-19T18:31:53.539Z,13.34
2022-10-19T18:34:25.212Z,12.99
2022-10-19T18:36:52.563Z,12.86
2022-10-19T18:39:21.489Z,13.07
2022-10-19T18:41:52.219Z,12.94
2022-10-19T18:44:23.524Z,13.00
2022-10-19T18:46:53.069Z,12.83
2022-10-19T18:49:19.600Z,12.81
2022-10-19T18:51:52.351Z,12.95
2022-10-19T18:54:31.965Z,12.83
2022-10-19T18:56:58.653Z,12.49
2022-10-19T18:59:25.306Z,13.04
2022-10-19T19:01:54.878Z,12.67
2022-10-19T19:04:23.452Z,12.69
2022-10-19T19:06:49.933Z,12.61
2022-10-19T19:09:18.747Z,12.57
2022-10-19T19:11:45.572Z,12.44
2022-10-19T19:14:15.438Z,12.96
2022-10-19T19:16:43.483Z,12.92
2022-10-19T19:19:13.254Z,12.67
2022-10-19T19:21:43.609Z,12.67
2022-10-19T19:24:13.401Z,12.89
2022-10-19T19:26:47.418Z,12.36
2022-10-19T19:29:14.476Z,12.84
2022-10-19T19:31:41.235Z,11.91
2022-10-19T19:34:09.391Z,12.22
2022-10-19T19:36:38.189Z,12.56
2022-10-19T19:39:05.963Z,12.32
2022-10-19T19:41:34.056Z,12.17
2022-10-19T19:44:01.080Z,11.97
2022-10-19T19:46:27.967Z,12.31
2022-10-19T19:49:00.910Z,12.72
2022-10-19T19:51:28.914Z,12.66
2022-10-19T19:53:55.855Z,12.38
2022-10-19T19:56:22.567Z,12.30
2022-10-19T19:58:54.633Z,12.59
2022-10-19T20:01:21.860Z,12.53
2022-10-19T20:03:48.711Z,12.26
2022-10-19T20:06:25.784Z,12.11
2022-10-19T20:08:58.920Z,12.48
2022-10-19T20:11:29.438Z,12.64
2022-10-19T20:13:56.453Z,12.27
2022-10-19T20:16:29.331Z,12.50
2022-10-19T20:19:00.842Z,12.59
2022-10-19T20:21:27.709Z,12.46
2022-10-19T20:23:54.415Z,12.38
2022-10-19T20:26:23.187Z,12.29
2022-10-19T20:28:50.214Z,12.16
2022-10-19T20:31:17.177Z,12.44
2022-10-19T20:33:44.906Z,12.31
2022-10-19T20:36:12.668Z,11.95
2022-10-19T20:38:40.307Z,12.37
2022-10-19T20:41:09.068Z,12.06
2022-10-19T20:43:38.302Z,11.92
2022-10-19T20:46:08.285Z,12.11
2022-10-19T20:48:34.835Z,12.16
2022-10-19T20:51:16.569Z,12.31
2022-10-19T20:53:46.316Z,12.04
2022-10-19T20:56:15.063Z,12.30
2022-10-19T20:58:43.500Z,12.02
2022-10-19T21:01:16.105Z,12.08
2022-10-19T21:03:48.018Z,12.29
2022-10-19T21:06:16.126Z,12.25
2022-10-19T21:08:42.721Z,11.99
2022-10-19T21:11:23.620Z,11.98
2022-10-19T21:13:54.837Z,12.19
2022-10-19T21:16:23.123Z,12.29
2022-10-19T21:18:50.383Z,12.28
2022-10-19T21:21:29.000Z,12.25
2022-10-19T21:24:06.472Z,12.02
2022-10-19T21:26:34.999Z,12.11
2022-10-19T21:29:06.217Z,12.23
2022-10-19T21:31:32.824Z,11.95
2022-10-19T21:33:59.316Z,12.14
2022-10-19T21:36:25.759Z,12.11
2022-10-19T21:38:52.241Z,12.25
2022-10-19T21:41:26.210Z,12.11
2022-10-19T21:43:54.546Z,12.00
2022-10-19T21:46:22.366Z,11.81
2022-10-19T21:48:50.118Z,12.01
2022-10-19T21:51:21.160Z,11.84
2022-10-19T21:53:47.777Z,11.66
2022-10-19T21:56:15.876Z,11.79
2022-10-19T21:58:46.840Z,12.15
2022-10-19T22:01:13.825Z,11.85
2022-10-19T22:03:40.567Z,12.15
2022-10-19T22:06:07.746Z,11.58
2022-10-19T22:08:34.437Z,11.63
2022-10-19T22:11:08.271Z,11.60
2022-10-19T22:13:35.839Z,11.83
2022-10-19T22:16:29.557Z,12.11
2022-10-19T22:18:56.743Z,12.11
2022-10-19T22:21:25.960Z,11.55
2022-10-19T22:23:54.427Z,11.71
2022-10-19T22:26:29.773Z,11.87
2022-10-19T22:29:00.581Z,12.07
2022-10-19T22:31:29.154Z,11.50
2022-10-19T22:33:55.889Z,11.69
2022-10-19T22:36:22.421Z,12.10
2022-10-19T22:38:48.938Z,11.93
2022-10-19T22:41:17.871Z,12.02
2022-10-19T22:43:44.437Z,11.95
2022-10-19T22:46:10.932Z,12.21
2022-10-19T22:48:37.439Z,11.82
2022-10-19T22:51:04.060Z,11.80
2022-10-19T22:53:30.833Z,11.66
2022-10-19T22:55:57.332Z,11.92
2022-10-19T22:58:23.849Z,12.04
2022-10-19T23:01:06.519Z,12.15
2022-10-19T23:03:33.561Z,11.82
2022-10-19T23:06:03.428Z,11.69
2022-10-19T23:08:37.848Z,11.68
2022-10-19T23:11:04.738Z,12.03
2022-10-19T23:13:31.883Z,12.17
2022-10-19T23:15:58.384Z,11.74
2022-10-19T23:18:24.861Z,12.12
2022-10-19T23:20:59.631Z,12.19
2022-10-19T23:23:27.512Z,12.21
2022-10-19T23:26:12.210Z,11.86
2022-10-19T23:28:43.280Z,12.11
2022-10-19T23:31:30.723Z,12.07
2022-10-19T23:33:57.375Z,11.96
2022-10-19T23:36:28.848Z,12.45
2022-10-19T23:38:57.181Z,12.48
2022-10-19T23:41:23.813Z,12.40
2022-10-19T23:43:50.436Z,12.18
2022-10-19T23:46:19.364Z,12.28
2022-10-19T23:48:46.087Z,12.03
2022-10-19T23:51:15.966Z,12.17
2022-10-19T23:53:44.753Z,12.50
2022-10-19T23:56:20.601Z,12.67
2022-10-19T23:58:47.682Z,12.35
